sensor_id;sensor_type;location;lat;lon;timestamp;P1;durP1;ratioP1;P2;durP2;ratioP2
78296;SDS011;67555;47.660;19.622;2023-02-10T00:00:44;12.75;;;9.43;;
78296;SDS011;67555;47.660;19.622;2023-02-10T00:03:11;6.93;;;5.97;;
78296;SDS011;67555;47.660;19.622;2023-02-10T00:05:36;11.27;;;8.50;;
78296;SDS011;67555;47.660;19.622;2023-02-10T00:08:02;17.27;;;7.07;;
78296;SDS011;67555;47.660;19.622;2023-02-10T00:10:28;8.40;;;6.60;;
78296;SDS011;67555;47.660;19.622;2023-02-10T00:12:54;14.00;;;9.00;;
78296;SDS011;67555;47.660;19.622;2023-02-10T00:15:19;16.83;;;9.52;;
78296;SDS011;67555;47.660;19.622;2023-02-10T00:17:45;17.55;;;8.60;;
78296;SDS011;67555;47.660;19.622;2023-02-10T00:20:11;11.90;;;7.88;;
78296;SDS011;67555;47.660;19.622;2023-02-10T00:22:36;8.70;;;5.55;;
78296;SDS011;67555;47.660;19.622;2023-02-10T00:25:02;24.30;;;8.43;;
78296;SDS011;67555;47.660;19.622;2023-02-10T00:27:28;9.02;;;4.45;;
78296;SDS011;67555;47.660;19.622;2023-02-10T00:29:54;12.60;;;8.93;;
78296;SDS011;67555;47.660;19.622;2023-02-10T00:32:20;12.77;;;7.60;;
78296;SDS011;67555;47.660;19.622;2023-02-10T00:34:45;18.00;;;8.52;;
78296;SDS011;67555;47.660;19.622;2023-02-10T00:37:11;7.00;;;6.30;;
78296;SDS011;67555;47.660;19.622;2023-02-10T00:39:37;16.52;;;8.43;;
78296;SDS011;67555;47.660;19.622;2023-02-10T00:42:03;9.52;;;7.60;;
78296;SDS011;67555;47.660;19.622;2023-02-10T00:44:28;13.05;;;8.07;;
78296;SDS011;67555;47.660;19.622;2023-02-10T00:46:54;7.30;;;5.10;;
78296;SDS011;67555;47.660;19.622;2023-02-10T00:49:20;11.02;;;7.13;;
78296;SDS011;67555;47.660;19.622;2023-02-10T00:51:45;9.93;;;5.97;;
78296;SDS011;67555;47.660;19.622;2023-02-10T00:54:11;8.90;;;4.80;;
78296;SDS011;67555;47.660;19.622;2023-02-10T00:56:38;13.48;;;6.25;;
78296;SDS011;67555;47.660;19.622;2023-02-10T00:59:07;5.97;;;5.30;;
78296;SDS011;67555;47.660;19.622;2023-02-10T01:01:33;10.93;;;7.70;;
78296;SDS011;67555;47.660;19.622;2023-02-10T01:03:59;11.07;;;6.10;;
78296;SDS011;67555;47.660;19.622;2023-02-10T01:06:25;12.10;;;7.60;;
78296;SDS011;67555;47.660;19.622;2023-02-10T01:09:09;14.07;;;9.73;;
78296;SDS011;67555;47.660;19.622;2023-02-10T01:11:35;14.13;;;9.73;;
78296;SDS011;67555;47.660;19.622;2023-02-10T01:14:01;12.77;;;7.75;;
78296;SDS011;67555;47.660;19.622;2023-02-10T01:16:27;13.20;;;6.03;;
78296;SDS011;67555;47.660;19.622;2023-02-10T01:18:53;12.10;;;7.90;;
78296;SDS011;67555;47.660;19.622;2023-02-10T01:21:19;19.30;;;7.75;;
78296;SDS011;67555;47.660;19.622;2023-02-10T01:23:46;15.60;;;7.75;;
78296;SDS011;67555;47.660;19.622;2023-02-10T01:26:12;12.30;;;8.23;;
78296;SDS011;67555;47.660;19.622;2023-02-10T01:28:39;9.15;;;6.57;;
78296;SDS011;67555;47.660;19.622;2023-02-10T01:31:12;16.00;;;8.05;;
78296;SDS011;67555;47.660;19.622;2023-02-10T01:33:45;18.00;;;7.03;;
78296;SDS011;67555;47.660;19.622;2023-02-10T01:36:12;9.80;;;7.32;;
78296;SDS011;67555;47.660;19.622;2023-02-10T01:38:40;10.63;;;6.65;;
78296;SDS011;67555;47.660;19.622;2023-02-10T01:41:07;14.50;;;5.40;;
78296;SDS011;67555;47.660;19.622;2023-02-10T01:43:33;11.20;;;6.88;;
78296;SDS011;67555;47.660;19.622;2023-02-10T01:46:18;14.60;;;9.10;;
78296;SDS011;67555;47.660;19.622;2023-02-10T01:48:43;12.32;;;7.43;;
78296;SDS011;67555;47.660;19.622;2023-02-10T01:51:09;10.02;;;7.00;;
78296;SDS011;67555;47.660;19.622;2023-02-10T01:53:36;14.65;;;6.07;;
78296;SDS011;67555;47.660;19.622;2023-02-10T01:56:02;12.90;;;7.72;;
78296;SDS011;67555;47.660;19.622;2023-02-10T01:58:29;10.35;;;6.10;;
78296;SDS011;67555;47.660;19.622;2023-02-10T02:00:58;10.00;;;4.82;;
78296;SDS011;67555;47.660;19.622;2023-02-10T02:03:24;14.60;;;7.15;;
78296;SDS011;67555;47.660;19.622;2023-02-10T02:05:51;13.48;;;7.57;;
78296;SDS011;67555;47.660;19.622;2023-02-10T02:08:21;14.55;;;9.32;;
78296;SDS011;67555;47.660;19.622;2023-02-10T02:11:00;14.48;;;6.38;;
78296;SDS011;67555;47.660;19.622;2023-02-10T02:18:43;10.98;;;6.10;;
78296;SDS011;67555;47.660;19.622;2023-02-10T02:21:39;10.65;;;6.03;;
78296;SDS011;67555;47.660;19.622;2023-02-10T02:36:00;10.82;;;5.25;;
78296;SDS011;67555;47.660;19.622;2023-02-10T02:38:40;16.65;;;8.75;;
78296;SDS011;67555;47.660;19.622;2023-02-10T02:41:07;12.40;;;5.85;;
78296;SDS011;67555;47.660;19.622;2023-02-10T02:43:33;7.30;;;3.70;;
78296;SDS011;67555;47.660;19.622;2023-02-10T02:48:51;9.57;;;5.72;;
78296;SDS011;67555;47.660;19.622;2023-02-10T03:02:04;7.13;;;4.80;;
78296;SDS011;67555;47.660;19.622;2023-02-10T03:04:36;10.18;;;5.63;;
78296;SDS011;67555;47.660;19.622;2023-02-10T03:07:03;13.13;;;4.80;;
78296;SDS011;67555;47.660;19.622;2023-02-10T03:09:30;15.25;;;5.80;;
78296;SDS011;67555;47.660;19.622;2023-02-10T03:11:56;4.55;;;4.18;;
78296;SDS011;67555;47.660;19.622;2023-02-10T03:14:21;6.53;;;4.20;;
78296;SDS011;67555;47.660;19.622;2023-02-10T03:16:47;13.23;;;5.43;;
78296;SDS011;67555;47.660;19.622;2023-02-10T03:19:13;8.40;;;6.25;;
78296;SDS011;67555;47.660;19.622;2023-02-10T03:21:39;6.53;;;5.93;;
78296;SDS011;67555;47.660;19.622;2023-02-10T03:24:05;3.47;;;3.17;;
78296;SDS011;67555;47.660;19.622;2023-02-10T03:26:31;5.05;;;3.90;;
78296;SDS011;67555;47.660;19.622;2023-02-10T03:28:57;8.30;;;5.95;;
78296;SDS011;67555;47.660;19.622;2023-02-10T03:31:22;7.65;;;5.45;;
78296;SDS011;67555;47.660;19.622;2023-02-10T03:33:48;11.23;;;6.03;;
78296;SDS011;67555;47.660;19.622;2023-02-10T03:36:14;16.42;;;7.45;;
78296;SDS011;67555;47.660;19.622;2023-02-10T03:38:40;11.43;;;6.15;;
78296;SDS011;67555;47.660;19.622;2023-02-10T03:41:06;5.75;;;4.20;;
78296;SDS011;67555;47.660;19.622;2023-02-10T03:43:32;22.05;;;4.97;;
78296;SDS011;67555;47.660;19.622;2023-02-10T03:46:01;26.92;;;10.00;;
78296;SDS011;67555;47.660;19.622;2023-02-10T03:48:28;14.93;;;8.85;;
78296;SDS011;67555;47.660;19.622;2023-02-10T03:51:03;9.25;;;7.30;;
78296;SDS011;67555;47.660;19.622;2023-02-10T03:53:32;14.15;;;6.03;;
78296;SDS011;67555;47.660;19.622;2023-02-10T03:55:58;11.05;;;6.32;;
78296;SDS011;67555;47.660;19.622;2023-02-10T03:58:25;8.98;;;7.13;;
78296;SDS011;67555;47.660;19.622;2023-02-10T04:00:50;8.00;;;6.15;;
78296;SDS011;67555;47.660;19.622;2023-02-10T04:03:16;17.48;;;9.10;;
78296;SDS011;67555;47.660;19.622;2023-02-10T04:05:42;12.15;;;8.13;;
78296;SDS011;67555;47.660;19.622;2023-02-10T04:08:08;13.73;;;7.57;;
78296;SDS011;67555;47.660;19.622;2023-02-10T04:10:35;11.23;;;6.65;;
78296;SDS011;67555;47.660;19.622;2023-02-10T04:13:01;11.65;;;6.50;;
78296;SDS011;67555;47.660;19.622;2023-02-10T04:15:27;10.75;;;7.75;;
78296;SDS011;67555;47.660;19.622;2023-02-10T04:17:53;11.93;;;7.13;;
78296;SDS011;67555;47.660;19.622;2023-02-10T04:20:21;24.73;;;7.10;;
78296;SDS011;67555;47.660;19.622;2023-02-10T04:22:47;21.02;;;8.32;;
78296;SDS011;67555;47.660;19.622;2023-02-10T04:25:15;7.00;;;5.95;;
78296;SDS011;67555;47.660;19.622;2023-02-10T04:27:41;7.53;;;6.55;;
78296;SDS011;67555;47.660;19.622;2023-02-10T04:30:07;11.55;;;7.30;;
78296;SDS011;67555;47.660;19.622;2023-02-10T04:32:33;7.57;;;3.60;;
78296;SDS011;67555;47.660;19.622;2023-02-10T04:35:02;3.95;;;3.33;;
78296;SDS011;67555;47.660;19.622;2023-02-10T04:37:28;5.72;;;3.38;;
78296;SDS011;67555;47.660;19.622;2023-02-10T04:39:53;10.07;;;4.35;;
78296;SDS011;67555;47.660;19.622;2023-02-10T04:42:19;3.03;;;2.20;;
78296;SDS011;67555;47.660;19.622;2023-02-10T04:44:54;4.13;;;2.00;;
78296;SDS011;67555;47.660;19.622;2023-02-10T04:47:27;8.40;;;3.00;;
78296;SDS011;67555;47.660;19.622;2023-02-10T04:49:53;6.63;;;3.00;;
78296;SDS011;67555;47.660;19.622;2023-02-10T04:52:19;10.00;;;8.60;;
78296;SDS011;67555;47.660;19.622;2023-02-10T04:54:45;10.80;;;7.05;;
78296;SDS011;67555;47.660;19.622;2023-02-10T04:57:11;7.03;;;3.33;;
78296;SDS011;67555;47.660;19.622;2023-02-10T04:59:40;5.80;;;2.55;;
78296;SDS011;67555;47.660;19.622;2023-02-10T05:02:05;8.82;;;4.50;;
78296;SDS011;67555;47.660;19.622;2023-02-10T05:04:31;8.85;;;3.13;;
78296;SDS011;67555;47.660;19.622;2023-02-10T05:06:58;5.53;;;2.85;;
78296;SDS011;67555;47.660;19.622;2023-02-10T05:09:24;3.30;;;3.08;;
78296;SDS011;67555;47.660;19.622;2023-02-10T05:11:52;5.20;;;4.13;;
78296;SDS011;67555;47.660;19.622;2023-02-10T05:14:18;9.60;;;6.97;;
78296;SDS011;67555;47.660;19.622;2023-02-10T05:16:43;7.95;;;4.72;;
78296;SDS011;67555;47.660;19.622;2023-02-10T05:19:09;8.85;;;6.00;;
78296;SDS011;67555;47.660;19.622;2023-02-10T05:21:35;6.80;;;5.28;;
78296;SDS011;67555;47.660;19.622;2023-02-10T05:24:01;8.80;;;5.50;;
78296;SDS011;67555;47.660;19.622;2023-02-10T05:26:27;10.85;;;6.43;;
78296;SDS011;67555;47.660;19.622;2023-02-10T05:28:53;19.60;;;8.73;;
78296;SDS011;67555;47.660;19.622;2023-02-10T05:31:19;18.02;;;11.02;;
78296;SDS011;67555;47.660;19.622;2023-02-10T05:33:45;14.82;;;7.93;;
78296;SDS011;67555;47.660;19.622;2023-02-10T05:36:10;7.20;;;4.28;;
78296;SDS011;67555;47.660;19.622;2023-02-10T05:38:36;15.27;;;6.88;;
78296;SDS011;67555;47.660;19.622;2023-02-10T05:41:02;12.45;;;8.20;;
78296;SDS011;67555;47.660;19.622;2023-02-10T05:43:28;4.95;;;3.92;;
78296;SDS011;67555;47.660;19.622;2023-02-10T05:45:53;16.10;;;8.73;;
78296;SDS011;67555;47.660;19.622;2023-02-10T05:48:19;8.57;;;7.20;;
78296;SDS011;67555;47.660;19.622;2023-02-10T05:50:49;12.68;;;7.68;;
78296;SDS011;67555;47.660;19.622;2023-02-10T05:53:15;9.98;;;6.68;;
78296;SDS011;67555;47.660;19.622;2023-02-10T05:55:41;10.75;;;6.22;;
78296;SDS011;67555;47.660;19.622;2023-02-10T05:58:06;9.13;;;5.53;;
78296;SDS011;67555;47.660;19.622;2023-02-10T06:00:32;10.25;;;7.45;;
78296;SDS011;67555;47.660;19.622;2023-02-10T06:02:58;12.57;;;6.78;;
78296;SDS011;67555;47.660;19.622;2023-02-10T06:05:23;13.23;;;6.93;;
78296;SDS011;67555;47.660;19.622;2023-02-10T06:07:49;9.93;;;7.82;;
78296;SDS011;67555;47.660;19.622;2023-02-10T06:10:15;15.30;;;6.63;;
78296;SDS011;67555;47.660;19.622;2023-02-10T06:12:40;8.25;;;4.97;;
78296;SDS011;67555;47.660;19.622;2023-02-10T06:15:06;8.43;;;7.07;;
78296;SDS011;67555;47.660;19.622;2023-02-10T06:17:32;6.18;;;4.75;;
78296;SDS011;67555;47.660;19.622;2023-02-10T06:19:58;9.70;;;7.60;;
78296;SDS011;67555;47.660;19.622;2023-02-10T06:22:23;12.82;;;6.93;;
78296;SDS011;67555;47.660;19.622;2023-02-10T06:24:51;9.93;;;6.70;;
78296;SDS011;67555;47.660;19.622;2023-02-10T06:27:19;11.38;;;7.38;;
78296;SDS011;67555;47.660;19.622;2023-02-10T06:29:46;4.85;;;3.30;;
78296;SDS011;67555;47.660;19.622;2023-02-10T06:32:13;9.23;;;5.07;;
78296;SDS011;67555;47.660;19.622;2023-02-10T06:34:39;14.68;;;8.00;;
78296;SDS011;67555;47.660;19.622;2023-02-10T06:37:05;12.73;;;6.10;;
78296;SDS011;67555;47.660;19.622;2023-02-10T06:39:31;15.27;;;6.22;;
78296;SDS011;67555;47.660;19.622;2023-02-10T06:41:57;8.20;;;6.30;;
78296;SDS011;67555;47.660;19.622;2023-02-10T06:44:24;8.13;;;7.05;;
78296;SDS011;67555;47.660;19.622;2023-02-10T06:46:50;23.58;;;12.00;;
78296;SDS011;67555;47.660;19.622;2023-02-10T06:49:16;12.23;;;8.27;;
78296;SDS011;67555;47.660;19.622;2023-02-10T06:51:41;40.00;;;29.20;;
78296;SDS011;67555;47.660;19.622;2023-02-10T06:54:07;33.83;;;17.80;;
78296;SDS011;67555;47.660;19.622;2023-02-10T06:56:33;15.90;;;6.35;;
78296;SDS011;67555;47.660;19.622;2023-02-10T06:58:58;17.60;;;7.97;;
78296;SDS011;67555;47.660;19.622;2023-02-10T07:01:24;12.40;;;10.25;;
78296;SDS011;67555;47.660;19.622;2023-02-10T07:03:50;14.93;;;9.10;;
78296;SDS011;67555;47.660;19.622;2023-02-10T07:06:15;18.17;;;7.15;;
78296;SDS011;67555;47.660;19.622;2023-02-10T07:08:43;11.82;;;8.07;;
78296;SDS011;67555;47.660;19.622;2023-02-10T07:11:09;20.52;;;9.70;;
78296;SDS011;67555;47.660;19.622;2023-02-10T07:13:35;23.92;;;12.20;;
78296;SDS011;67555;47.660;19.622;2023-02-10T07:16:01;18.42;;;12.18;;
78296;SDS011;67555;47.660;19.622;2023-02-10T07:18:27;29.00;;;14.90;;
78296;SDS011;67555;47.660;19.622;2023-02-10T07:20:54;25.58;;;14.45;;
78296;SDS011;67555;47.660;19.622;2023-02-10T07:23:21;23.23;;;11.98;;
78296;SDS011;67555;47.660;19.622;2023-02-10T07:25:46;16.52;;;8.93;;
78296;SDS011;67555;47.660;19.622;2023-02-10T07:28:12;20.75;;;12.07;;
78296;SDS011;67555;47.660;19.622;2023-02-10T07:30:38;23.30;;;13.15;;
78296;SDS011;67555;47.660;19.622;2023-02-10T07:33:04;17.70;;;12.40;;
78296;SDS011;67555;47.660;19.622;2023-02-10T07:35:30;23.60;;;11.07;;
78296;SDS011;67555;47.660;19.622;2023-02-10T07:37:55;25.35;;;13.55;;
78296;SDS011;67555;47.660;19.622;2023-02-10T07:40:21;26.60;;;14.48;;
78296;SDS011;67555;47.660;19.622;2023-02-10T07:42:47;28.17;;;14.35;;
78296;SDS011;67555;47.660;19.622;2023-02-10T07:45:13;24.42;;;15.38;;
78296;SDS011;67555;47.660;19.622;2023-02-10T07:47:38;20.95;;;13.00;;
78296;SDS011;67555;47.660;19.622;2023-02-10T07:50:04;23.50;;;12.30;;
78296;SDS011;67555;47.660;19.622;2023-02-10T07:52:30;29.02;;;13.65;;
78296;SDS011;67555;47.660;19.622;2023-02-10T07:54:56;15.18;;;10.70;;
78296;SDS011;67555;47.660;19.622;2023-02-10T07:57:23;15.45;;;9.43;;
78296;SDS011;67555;47.660;19.622;2023-02-10T07:59:49;20.98;;;12.43;;
78296;SDS011;67555;47.660;19.622;2023-02-10T08:02:14;28.90;;;11.23;;
78296;SDS011;67555;47.660;19.622;2023-02-10T08:04:40;19.90;;;13.85;;
78296;SDS011;67555;47.660;19.622;2023-02-10T08:07:06;20.38;;;11.77;;
78296;SDS011;67555;47.660;19.622;2023-02-10T08:09:31;19.95;;;11.63;;
78296;SDS011;67555;47.660;19.622;2023-02-10T08:11:59;24.75;;;12.65;;
78296;SDS011;67555;47.660;19.622;2023-02-10T08:14:25;20.00;;;12.38;;
78296;SDS011;67555;47.660;19.622;2023-02-10T08:16:51;25.27;;;14.68;;
78296;SDS011;67555;47.660;19.622;2023-02-10T08:19:17;28.40;;;16.35;;
78296;SDS011;67555;47.660;19.622;2023-02-10T08:21:43;27.67;;;16.75;;
78296;SDS011;67555;47.660;19.622;2023-02-10T08:24:09;33.88;;;18.38;;
78296;SDS011;67555;47.660;19.622;2023-02-10T08:26:36;28.52;;;14.52;;
78296;SDS011;67555;47.660;19.622;2023-02-10T08:29:02;25.80;;;13.48;;
78296;SDS011;67555;47.660;19.622;2023-02-10T08:31:28;19.48;;;10.82;;
78296;SDS011;67555;47.660;19.622;2023-02-10T08:33:55;23.42;;;13.52;;
78296;SDS011;67555;47.660;19.622;2023-02-10T08:36:21;19.10;;;9.68;;
78296;SDS011;67555;47.660;19.622;2023-02-10T08:38:48;21.90;;;11.52;;
78296;SDS011;67555;47.660;19.622;2023-02-10T08:41:15;25.08;;;11.68;;
78296;SDS011;67555;47.660;19.622;2023-02-10T08:43:41;21.88;;;13.98;;
78296;SDS011;67555;47.660;19.622;2023-02-10T08:46:07;23.35;;;13.32;;
78296;SDS011;67555;47.660;19.622;2023-02-10T08:48:33;32.00;;;15.25;;
78296;SDS011;67555;47.660;19.622;2023-02-10T08:50:59;23.83;;;11.88;;
78296;SDS011;67555;47.660;19.622;2023-02-10T08:53:29;26.30;;;14.05;;
78296;SDS011;67555;47.660;19.622;2023-02-10T08:56:05;29.30;;;13.95;;
78296;SDS011;67555;47.660;19.622;2023-02-10T08:58:34;27.15;;;12.40;;
78296;SDS011;67555;47.660;19.622;2023-02-10T09:00:59;30.10;;;12.20;;
78296;SDS011;67555;47.660;19.622;2023-02-10T09:03:26;20.90;;;12.48;;
78296;SDS011;67555;47.660;19.622;2023-02-10T09:05:52;29.48;;;16.63;;
78296;SDS011;67555;47.660;19.622;2023-02-10T09:08:18;27.50;;;13.00;;
78296;SDS011;67555;47.660;19.622;2023-02-10T09:10:45;19.88;;;11.35;;
78296;SDS011;67555;47.660;19.622;2023-02-10T09:13:11;23.25;;;11.77;;
78296;SDS011;67555;47.660;19.622;2023-02-10T09:15:37;22.15;;;12.15;;
78296;SDS011;67555;47.660;19.622;2023-02-10T09:18:05;23.98;;;13.65;;
78296;SDS011;67555;47.660;19.622;2023-02-10T09:20:32;26.60;;;12.40;;
78296;SDS011;67555;47.660;19.622;2023-02-10T09:22:58;20.80;;;11.18;;
78296;SDS011;67555;47.660;19.622;2023-02-10T09:25:23;26.00;;;11.15;;
78296;SDS011;67555;47.660;19.622;2023-02-10T09:27:50;22.15;;;11.75;;
78296;SDS011;67555;47.660;19.622;2023-02-10T09:30:17;20.80;;;11.27;;
78296;SDS011;67555;47.660;19.622;2023-02-10T09:32:42;22.08;;;10.70;;
78296;SDS011;67555;47.660;19.622;2023-02-10T09:35:08;22.80;;;11.15;;
78296;SDS011;67555;47.660;19.622;2023-02-10T09:37:34;24.85;;;12.27;;
78296;SDS011;67555;47.660;19.622;2023-02-10T09:39:59;25.95;;;11.18;;
78296;SDS011;67555;47.660;19.622;2023-02-10T09:45:13;22.67;;;10.93;;
78296;SDS011;67555;47.660;19.622;2023-02-10T09:50:32;20.40;;;9.35;;
78296;SDS011;67555;47.660;19.622;2023-02-10T09:53:20;19.33;;;9.20;;
78296;SDS011;67555;47.660;19.622;2023-02-10T09:56:22;20.55;;;10.10;;
78296;SDS011;67555;47.660;19.622;2023-02-10T09:58:46;16.95;;;8.10;;
78296;SDS011;67555;47.660;19.622;2023-02-10T10:04:10;21.10;;;9.85;;
78296;SDS011;67555;47.660;19.622;2023-02-10T10:06:45;24.02;;;12.50;;
78296;SDS011;67555;47.660;19.622;2023-02-10T10:09:18;21.08;;;9.98;;
78296;SDS011;67555;47.660;19.622;2023-02-10T10:12:08;10.32;;;5.18;;
78296;SDS011;67555;47.660;19.622;2023-02-10T10:14:38;17.80;;;9.85;;
78296;SDS011;67555;47.660;19.622;2023-02-10T10:26:00;16.60;;;8.75;;
78296;SDS011;67555;47.660;19.622;2023-02-10T10:31:37;19.70;;;8.95;;
78296;SDS011;67555;47.660;19.622;2023-02-10T10:36:37;15.80;;;7.70;;
78296;SDS011;67555;47.660;19.622;2023-02-10T10:42:00;12.70;;;7.45;;
78296;SDS011;67555;47.660;19.622;2023-02-10T10:44:30;11.07;;;7.05;;
78296;SDS011;67555;47.660;19.622;2023-02-10T10:47:10;18.83;;;8.05;;
78296;SDS011;67555;47.660;19.622;2023-02-10T10:49:54;15.57;;;7.95;;
78296;SDS011;67555;47.660;19.622;2023-02-10T10:54:56;13.75;;;8.15;;
78296;SDS011;67555;47.660;19.622;2023-02-10T10:57:23;17.27;;;8.57;;
78296;SDS011;67555;47.660;19.622;2023-02-10T10:59:56;14.80;;;7.57;;
78296;SDS011;67555;47.660;19.622;2023-02-10T11:02:28;14.25;;;6.50;;
78296;SDS011;67555;47.660;19.622;2023-02-10T11:05:55;14.00;;;7.30;;
78296;SDS011;67555;47.660;19.622;2023-02-10T11:07:57;10.98;;;6.75;;
78296;SDS011;67555;47.660;19.622;2023-02-10T11:13:16;15.85;;;9.05;;
78296;SDS011;67555;47.660;19.622;2023-02-10T11:15:44;17.92;;;7.88;;
78296;SDS011;67555;47.660;19.622;2023-02-10T11:18:20;11.25;;;6.78;;
78296;SDS011;67555;47.660;19.622;2023-02-10T11:21:00;19.77;;;9.48;;
78296;SDS011;67555;47.660;19.622;2023-02-10T11:23:47;15.13;;;7.78;;
78296;SDS011;67555;47.660;19.622;2023-02-10T11:26:21;13.57;;;6.60;;
78296;SDS011;67555;47.660;19.622;2023-02-10T11:28:49;17.92;;;7.32;;
78296;SDS011;67555;47.660;19.622;2023-02-10T11:36:34;21.00;;;9.40;;
78296;SDS011;67555;47.660;19.622;2023-02-10T11:39:06;18.75;;;9.02;;
78296;SDS011;67555;47.660;19.622;2023-02-10T11:41:46;21.02;;;9.30;;
78296;SDS011;67555;47.660;19.622;2023-02-10T11:47:13;15.60;;;8.80;;
78296;SDS011;67555;47.660;19.622;2023-02-10T11:49:45;19.35;;;8.75;;
78296;SDS011;67555;47.660;19.622;2023-02-10T11:52:14;16.50;;;8.20;;
78296;SDS011;67555;47.660;19.622;2023-02-10T11:54:44;19.25;;;8.60;;
78296;SDS011;67555;47.660;19.622;2023-02-10T12:05:34;20.95;;;8.15;;
78296;SDS011;67555;47.660;19.622;2023-02-10T12:11:12;17.63;;;8.82;;
78296;SDS011;67555;47.660;19.622;2023-02-10T12:28:10;19.52;;;8.55;;
78296;SDS011;67555;47.660;19.622;2023-02-10T12:33:38;20.25;;;10.60;;
78296;SDS011;67555;47.660;19.622;2023-02-10T12:36:23;20.15;;;8.85;;
78296;SDS011;67555;47.660;19.622;2023-02-10T12:39:04;16.40;;;9.52;;
78296;SDS011;67555;47.660;19.622;2023-02-10T12:44:49;21.10;;;9.60;;
78296;SDS011;67555;47.660;19.622;2023-02-10T12:47:45;20.27;;;11.38;;
78296;SDS011;67555;47.660;19.622;2023-02-10T12:50:23;19.90;;;11.18;;
78296;SDS011;67555;47.660;19.622;2023-02-10T12:53:17;19.83;;;10.00;;
78296;SDS011;67555;47.660;19.622;2023-02-10T12:55:54;25.23;;;12.27;;
78296;SDS011;67555;47.660;19.622;2023-02-10T12:59:23;24.73;;;11.70;;
78296;SDS011;67555;47.660;19.622;2023-02-10T13:01:32;21.20;;;11.27;;
78296;SDS011;67555;47.660;19.622;2023-02-10T13:04:16;20.58;;;10.02;;
78296;SDS011;67555;47.660;19.622;2023-02-10T13:07:05;17.42;;;10.20;;
78296;SDS011;67555;47.660;19.622;2023-02-10T13:09:43;22.08;;;10.85;;
78296;SDS011;67555;47.660;19.622;2023-02-10T13:12:25;25.10;;;12.27;;
78296;SDS011;67555;47.660;19.622;2023-02-10T13:15:05;19.45;;;10.35;;
78296;SDS011;67555;47.660;19.622;2023-02-10T13:17:47;23.65;;;11.80;;
78296;SDS011;67555;47.660;19.622;2023-02-10T13:23:11;21.38;;;10.63;;
78296;SDS011;67555;47.660;19.622;2023-02-10T13:34:35;19.15;;;9.40;;
78296;SDS011;67555;47.660;19.622;2023-02-10T13:40:02;18.45;;;9.20;;
78296;SDS011;67555;47.660;19.622;2023-02-10T13:42:37;18.40;;;9.68;;
78296;SDS011;67555;47.660;19.622;2023-02-10T13:45:14;17.95;;;9.48;;
78296;SDS011;67555;47.660;19.622;2023-02-10T13:48:04;15.93;;;8.13;;
78296;SDS011;67555;47.660;19.622;2023-02-10T13:50:46;16.25;;;8.43;;
78296;SDS011;67555;47.660;19.622;2023-02-10T13:53:38;15.85;;;7.65;;
78296;SDS011;67555;47.660;19.622;2023-02-10T13:58:55;15.45;;;7.95;;
78296;SDS011;67555;47.660;19.622;2023-02-10T14:06:47;13.02;;;7.25;;
78296;SDS011;67555;47.660;19.622;2023-02-10T14:12:00;18.08;;;8.40;;
78296;SDS011;67555;47.660;19.622;2023-02-10T14:14:29;26.08;;;13.75;;
78296;SDS011;67555;47.660;19.622;2023-02-10T14:17:42;14.07;;;8.63;;
78296;SDS011;67555;47.660;19.622;2023-02-10T14:19:54;16.45;;;8.20;;
78296;SDS011;67555;47.660;19.622;2023-02-10T14:22:30;23.05;;;12.32;;
78296;SDS011;67555;47.660;19.622;2023-02-10T14:25:03;22.25;;;11.27;;
78296;SDS011;67555;47.660;19.622;2023-02-10T14:27:52;19.58;;;9.85;;
78296;SDS011;67555;47.660;19.622;2023-02-10T14:30:27;21.48;;;9.82;;
78296;SDS011;67555;47.660;19.622;2023-02-10T14:35:49;15.20;;;8.00;;
78296;SDS011;67555;47.660;19.622;2023-02-10T14:38:19;19.60;;;9.02;;
78296;SDS011;67555;47.660;19.622;2023-02-10T14:40:46;18.63;;;9.40;;
78296;SDS011;67555;47.660;19.622;2023-02-10T14:43:13;19.58;;;9.82;;
78296;SDS011;67555;47.660;19.622;2023-02-10T14:45:44;21.08;;;9.95;;
78296;SDS011;67555;47.660;19.622;2023-02-10T14:48:12;18.80;;;9.93;;
78296;SDS011;67555;47.660;19.622;2023-02-10T14:50:39;21.45;;;10.88;;
78296;SDS011;67555;47.660;19.622;2023-02-10T14:53:14;20.40;;;10.77;;
78296;SDS011;67555;47.660;19.622;2023-02-10T14:55:42;20.35;;;10.45;;
78296;SDS011;67555;47.660;19.622;2023-02-10T14:58:14;19.52;;;10.23;;
78296;SDS011;67555;47.660;19.622;2023-02-10T15:00:54;15.95;;;8.35;;
78296;SDS011;67555;47.660;19.622;2023-02-10T15:06:00;18.05;;;9.48;;
78296;SDS011;67555;47.660;19.622;2023-02-10T15:10:58;15.35;;;9.27;;
78296;SDS011;67555;47.660;19.622;2023-02-10T15:13:29;21.77;;;9.88;;
78296;SDS011;67555;47.660;19.622;2023-02-10T15:16:15;16.48;;;8.93;;
78296;SDS011;67555;47.660;19.622;2023-02-10T15:18:45;18.73;;;8.55;;
78296;SDS011;67555;47.660;19.622;2023-02-10T15:27:14;23.45;;;9.82;;
78296;SDS011;67555;47.660;19.622;2023-02-10T15:29:41;20.50;;;8.80;;
78296;SDS011;67555;47.660;19.622;2023-02-10T15:32:15;14.90;;;8.77;;
78296;SDS011;67555;47.660;19.622;2023-02-10T15:34:45;15.75;;;10.35;;
78296;SDS011;67555;47.660;19.622;2023-02-10T15:37:18;21.45;;;11.13;;
78296;SDS011;67555;47.660;19.622;2023-02-10T15:39:57;23.63;;;12.05;;
78296;SDS011;67555;47.660;19.622;2023-02-10T15:42:29;23.55;;;12.15;;
78296;SDS011;67555;47.660;19.622;2023-02-10T15:45:14;35.65;;;14.30;;
78296;SDS011;67555;47.660;19.622;2023-02-10T15:47:42;54.05;;;23.08;;
78296;SDS011;67555;47.660;19.622;2023-02-10T15:50:11;41.30;;;18.25;;
78296;SDS011;67555;47.660;19.622;2023-02-10T15:52:43;30.23;;;13.68;;
78296;SDS011;67555;47.660;19.622;2023-02-10T15:55:19;22.63;;;10.05;;
78296;SDS011;67555;47.660;19.622;2023-02-10T15:57:59;25.90;;;12.50;;
78296;SDS011;67555;47.660;19.622;2023-02-10T16:00:29;30.65;;;13.57;;
78296;SDS011;67555;47.660;19.622;2023-02-10T16:03:00;21.40;;;11.20;;
78296;SDS011;67555;47.660;19.622;2023-02-10T16:05:26;21.52;;;11.48;;
78296;SDS011;67555;47.660;19.622;2023-02-10T16:07:54;22.73;;;12.00;;
78296;SDS011;67555;47.660;19.622;2023-02-10T16:10:29;17.25;;;9.63;;
78296;SDS011;67555;47.660;19.622;2023-02-10T16:12:55;19.05;;;10.85;;
78296;SDS011;67555;47.660;19.622;2023-02-10T16:15:23;19.33;;;10.68;;
78296;SDS011;67555;47.660;19.622;2023-02-10T16:17:57;18.63;;;9.63;;
78296;SDS011;67555;47.660;19.622;2023-02-10T16:20:26;21.30;;;10.63;;
78296;SDS011;67555;47.660;19.622;2023-02-10T16:22:54;22.65;;;9.98;;
78296;SDS011;67555;47.660;19.622;2023-02-10T16:25:25;24.95;;;10.75;;
78296;SDS011;67555;47.660;19.622;2023-02-10T16:27:52;18.98;;;10.07;;
78296;SDS011;67555;47.660;19.622;2023-02-10T16:30:21;21.33;;;10.48;;
78296;SDS011;67555;47.660;19.622;2023-02-10T16:32:49;21.85;;;11.38;;
78296;SDS011;67555;47.660;19.622;2023-02-10T16:35:16;19.08;;;10.00;;
78296;SDS011;67555;47.660;19.622;2023-02-10T16:37:45;35.00;;;13.55;;
78296;SDS011;67555;47.660;19.622;2023-02-10T16:40:15;27.70;;;11.88;;
78296;SDS011;67555;47.660;19.622;2023-02-10T16:42:47;24.20;;;13.80;;
78296;SDS011;67555;47.660;19.622;2023-02-10T16:45:13;64.72;;;29.65;;
78296;SDS011;67555;47.660;19.622;2023-02-10T16:47:39;86.60;;;44.58;;
78296;SDS011;67555;47.660;19.622;2023-02-10T16:50:06;83.63;;;36.35;;
78296;SDS011;67555;47.660;19.622;2023-02-10T16:52:44;99.60;;;41.70;;